Time;durP1;ratioP1;P1;durP2;ratioP2;P2;SDS_P1;SDS_P2;PMS_P1;PMS_P2;Temp;Humidity;BMP_temperature;BMP_pressure;BME280_temperature;BME280_humidity;BME280_pressure;Samples;Min_cycle;Max_cycle;Signal;HPM_P1;HPM_P2
2023/10/23 00:01:40;;;;;;;2.33;1.40;;;11.80;99.90;;;;;;5075401;28;20173;-77
2023/10/23 00:04:07;;;;;;;1.37;1.20;;;11.90;99.90;;;;;;5075480;28;20187;-78
2023/10/23 00:06:33;;;;;;;1.57;1.47;;;11.90;99.90;;;;;;5075779;28;20249;-76
2023/10/23 00:08:59;;;;;;;1.30;1.30;;;11.90;99.90;;;;;;5076168;28;20177;-75
2023/10/23 00:11:28;;;;;;;1.63;1.47;;;12.00;99.90;;;;;;5076386;28;20184;-76
2023/10/23 00:13:54;;;;;;;1.57;1.57;;;11.90;99.90;;;;;;5077257;28;20177;-77
2023/10/23 00:16:20;;;;;;;1.40;1.40;;;11.60;99.90;;;;;;5076269;28;20174;-78
2023/10/23 00:18:46;;;;;;;1.40;1.30;;;11.90;99.90;;;;;;5080656;28;20184;-78
2023/10/23 00:21:13;;;;;;;2.17;1.40;;;11.70;99.90;;;;;;5096408;28;20176;-77
2023/10/23 00:23:38;;;;;;;1.77;1.67;;;11.70;99.90;;;;;;5089147;28;20553;-79
2023/10/23 00:26:08;;;;;;;1.57;1.47;;;11.80;99.90;;;;;;5076018;28;20242;-76
2023/10/23 00:28:34;;;;;;;1.50;1.50;;;11.70;99.90;;;;;;5075224;28;20189;-78
2023/10/23 00:31:00;;;;;;;1.53;1.43;;;11.70;99.90;;;;;;5075148;28;20626;-80
2023/10/23 00:33:28;;;;;;;2.97;1.50;;;11.70;99.90;;;;;;5075106;28;20187;-77
2023/10/23 00:35:54;;;;;;;1.70;1.60;;;11.70;99.90;;;;;;5075314;28;20172;-79
2023/10/23 00:38:20;;;;;;;1.60;1.50;;;11.70;99.90;;;;;;5075997;28;20329;-80
2023/10/23 00:40:46;;;;;;;2.03;1.60;;;11.70;99.90;;;;;;5076450;28;20187;-79
2023/10/23 00:43:20;;;;;;;1.63;1.20;;;11.70;99.90;;;;;;5078835;28;20619;-77
2023/10/23 00:45:58;;;;;;;1.27;1.27;;;11.70;99.90;;;;;;5075581;28;20315;-77
2023/10/23 00:48:25;;;;;;;3.90;1.60;;;11.70;99.90;;;;;;5074542;28;20534;-77
2023/10/23 00:50:58;;;;;;;1.53;1.43;;;11.70;99.90;;;;;;5074938;28;20185;-78
2023/10/23 00:53:26;;;;;;;1.30;1.30;;;11.70;99.90;;;;;;5074848;28;20163;-80
2023/10/23 00:55:53;;;;;;;2.30;1.50;;;11.60;99.90;;;;;;5074736;28;20696;-81
2023/10/23 00:58:20;;;;;;;1.80;1.33;;;11.50;99.90;;;;;;5075151;28;20184;-77
2023/10/23 01:00:47;;;;;;;1.47;1.40;;;11.50;99.90;;;;;;5074267;28;20174;-77
2023/10/23 01:03:13;;;;;;;2.37;1.87;;;11.50;99.90;;;;;;5074956;28;20172;-76
2023/10/23 01:05:39;;;;;;;1.50;1.50;;;11.50;99.90;;;;;;5074109;28;20202;-76
2023/10/23 01:08:06;;;;;;;1.80;1.70;;;11.50;99.90;;;;;;5076419;28;20208;-78
2023/10/23 01:10:32;;;;;;;1.50;1.50;;;11.50;99.90;;;;;;5075286;28;20302;-76
2023/10/23 01:12:58;;;;;;;3.63;1.57;;;11.50;99.90;;;;;;5074219;28;20177;-77
2023/10/23 01:15:24;;;;;;;1.60;1.50;;;11.40;99.90;;;;;;5074156;28;20184;-76
2023/10/23 01:18:08;;;;;;;2.00;1.80;;;11.50;99.90;;;;;;5081361;28;20176;-77
2023/10/23 01:20:34;;;;;;;2.67;1.60;;;11.40;99.90;;;;;;5075623;28;20160;-79
2023/10/23 01:23:02;;;;;;;1.70;1.60;;;11.50;99.90;;;;;;5074653;28;20172;-77
2023/10/23 01:25:28;;;;;;;1.77;1.67;;;11.40;99.90;;;;;;5075479;28;20266;-76
2023/10/23 01:27:55;;;;;;;2.70;1.50;;;11.50;99.90;;;;;;5075662;28;20257;-77
2023/10/23 01:30:21;;;;;;;1.40;1.40;;;11.50;99.90;;;;;;5073374;28;20554;-77
2023/10/23 01:32:47;;;;;;;1.37;1.37;;;11.50;99.90;;;;;;5073418;28;20610;-75
2023/10/23 01:35:13;;;;;;;2.00;1.47;;;11.40;99.90;;;;;;5074238;28;20538;-80
2023/10/23 01:37:41;;;;;;;2.00;1.60;;;11.40;99.90;;;;;;5073824;28;20180;-77
2023/10/23 01:40:07;;;;;;;1.60;1.50;;;11.50;99.90;;;;;;5073668;28;20199;-79
2023/10/23 01:42:33;;;;;;;2.57;1.60;;;11.50;99.90;;;;;;5074001;28;20573;-76
2023/10/23 01:44:59;;;;;;;1.73;1.63;;;11.50;99.90;;;;;;5075923;28;20211;-77
2023/10/23 01:47:26;;;;;;;1.80;1.70;;;11.40;99.90;;;;;;5080498;28;20185;-79
2023/10/23 01:49:52;;;;;;;1.60;1.53;;;11.40;99.90;;;;;;5089942;28;20182;-75
2023/10/23 01:52:18;;;;;;;1.93;1.77;;;11.30;99.90;;;;;;5085850;28;20321;-78
2023/10/23 01:54:44;;;;;;;2.63;1.60;;;11.40;99.90;;;;;;5081279;28;20185;-78
2023/10/23 01:57:11;;;;;;;2.13;1.50;;;11.40;99.90;;;;;;5094271;28;20180;-76
2023/10/23 01:59:37;;;;;;;1.83;1.73;;;11.30;99.90;;;;;;5081354;28;20327;-79
2023/10/23 02:02:03;;;;;;;1.70;1.60;;;11.30;99.90;;;;;;5074105;28;20304;-77
2023/10/23 02:04:29;;;;;;;1.80;1.70;;;11.30;99.90;;;;;;5073265;28;20183;-78
2023/10/23 02:06:55;;;;;;;1.50;1.40;;;11.30;99.90;;;;;;5073692;28;20206;-78
2023/10/23 02:09:22;;;;;;;1.67;1.63;;;11.30;99.90;;;;;;5073361;28;20178;-79
2023/10/23 02:11:48;;;;;;;1.70;1.60;;;11.30;99.90;;;;;;5073654;28;20182;-77
2023/10/23 02:14:13;;;;;;;2.70;1.70;;;11.20;99.90;;;;;;5073886;28;20540;-76
2023/10/23 02:16:39;;;;;;;2.03;1.93;;;11.20;99.90;;;;;;5073309;28;20192;-76
2023/10/23 02:19:05;;;;;;;1.67;1.63;;;11.90;99.90;;;;;;5072267;28;20184;-78
2023/10/23 02:21:31;;;;;;;2.03;1.93;;;11.20;99.90;;;;;;5075158;28;20192;-76
2023/10/23 02:23:58;;;;;;;1.80;1.70;;;11.30;99.90;;;;;;5072077;28;20186;-79
2023/10/23 02:26:25;;;;;;;1.80;1.70;;;11.30;99.90;;;;;;5073733;28;20256;-76
2023/10/23 02:28:52;;;;;;;1.80;1.70;;;11.20;99.90;;;;;;5082143;28;20316;-78
2023/10/23 02:31:18;;;;;;;1.90;1.60;;;11.20;99.90;;;;;;5090742;28;20239;-77
2023/10/23 02:33:43;;;;;;;2.03;1.50;;;11.20;99.90;;;;;;5080693;28;20194;-77
2023/10/23 02:36:11;;;;;;;1.70;1.60;;;11.20;99.90;;;;;;5081572;28;20189;-77
2023/10/23 02:38:36;;;;;;;1.67;1.57;;;11.20;99.90;;;;;;5073476;28;20174;-76
2023/10/23 02:41:02;;;;;;;1.50;1.50;;;11.20;99.90;;;;;;5072398;28;20189;-78
2023/10/23 02:43:28;;;;;;;4.27;1.93;;;11.20;99.90;;;;;;5073407;28;20176;-78
2023/10/23 02:45:54;;;;;;;4.47;1.70;;;11.10;99.90;;;;;;5055177;28;20215;-77
2023/10/23 02:48:20;;;;;;;1.80;1.70;;;11.10;99.90;;;;;;5072574;28;20535;-77
2023/10/23 02:50:53;;;;;;;1.67;1.53;;;11.10;99.90;;;;;;5072153;28;20186;-78
2023/10/23 02:53:19;;;;;;;2.93;1.90;;;11.00;99.90;;;;;;5071961;28;20207;-79
2023/10/23 02:55:44;;;;;;;1.53;1.43;;;11.00;99.90;;;;;;5072387;28;20672;-76
2023/10/23 02:58:11;;;;;;;1.90;1.80;;;10.90;99.90;;;;;;5077957;28;20180;-79
2023/10/23 03:00:39;;;;;;;3.13;1.90;;;10.90;99.90;;;;;;5078618;28;20181;-78
2023/10/23 03:03:05;;;;;;;3.90;1.60;;;10.90;99.90;;;;;;5072359;28;20210;-78
2023/10/23 03:05:32;;;;;;;1.40;1.40;;;10.90;99.90;;;;;;5072272;28;20198;-77
2023/10/23 03:07:57;;;;;;;1.97;1.87;;;10.90;99.90;;;;;;5079228;28;20253;-78
2023/10/23 03:10:23;;;;;;;2.20;1.60;;;10.90;99.90;;;;;;5072372;28;20257;-79
2023/10/23 03:12:49;;;;;;;2.00;1.90;;;10.90;99.90;;;;;;5072348;28;20251;-79
2023/10/23 03:15:16;;;;;;;1.77;1.73;;;10.90;99.90;;;;;;5072760;28;20187;-78
2023/10/23 03:17:42;;;;;;;1.50;1.50;;;10.90;99.90;;;;;;5072518;28;20193;-77
2023/10/23 03:20:09;;;;;;;2.07;1.90;;;10.90;99.90;;;;;;5073087;28;20280;-77
2023/10/23 03:22:34;;;;;;;2.63;1.67;;;10.90;99.90;;;;;;5074857;28;20176;-76
2023/10/23 03:25:00;;;;;;;2.50;1.90;;;10.90;99.90;;;;;;5073257;28;20207;-76
2023/10/23 03:27:26;;;;;;;1.87;1.77;;;10.90;99.90;;;;;;5075445;28;20248;-77
2023/10/23 03:29:52;;;;;;;2.43;1.90;;;10.90;99.90;;;;;;5081750;28;20159;-78
2023/10/23 03:32:18;;;;;;;2.13;1.93;;;10.80;99.90;;;;;;5097311;28;20190;-79
2023/10/23 03:34:44;;;;;;;1.90;1.80;;;10.80;99.90;;;;;;5090120;28;20294;-77
2023/10/23 03:37:10;;;;;;;2.20;2.10;;;10.80;99.90;;;;;;5077531;28;20198;-78
2023/10/23 03:39:36;;;;;;;1.93;1.83;;;10.80;99.90;;;;;;5077751;28;20251;-77
2023/10/23 03:42:02;;;;;;;2.20;2.10;;;10.80;99.90;;;;;;5075938;28;20173;-79
2023/10/23 03:44:27;;;;;;;1.80;1.70;;;10.70;99.90;;;;;;5075841;28;20169;-79
2023/10/23 03:46:53;;;;;;;2.30;2.20;;;10.80;99.90;;;;;;5075608;28;20213;-78
2023/10/23 03:49:19;;;;;;;1.70;1.60;;;10.70;99.90;;;;;;5075126;28;20223;-77
2023/10/23 03:51:45;;;;;;;1.87;1.77;;;10.60;99.90;;;;;;5075923;28;20267;-76
2023/10/23 03:54:11;;;;;;;2.40;1.60;;;10.60;99.90;;;;;;5075696;28;20519;-77
2023/10/23 03:56:37;;;;;;;1.70;1.70;;;10.50;99.90;;;;;;5078201;28;20180;-78
2023/10/23 03:59:03;;;;;;;1.97;1.53;;;10.50;99.90;;;;;;5078035;28;20183;-79
2023/10/23 04:01:29;;;;;;;1.60;1.50;;;10.50;99.90;;;;;;5076172;28;20530;-76
2023/10/23 04:03:55;;;;;;;2.10;1.60;;;10.50;99.90;;;;;;5075570;28;20184;-77
2023/10/23 04:06:22;;;;;;;1.53;1.43;;;10.50;99.90;;;;;;5074910;28;20207;-76
2023/10/23 04:08:52;;;;;;;1.70;1.60;;;10.40;99.90;;;;;;5075524;28;20580;-78
2023/10/23 04:11:18;;;;;;;3.17;1.80;;;10.40;99.90;;;;;;5075472;28;20170;-79
2023/10/23 04:13:44;;;;;;;1.90;1.73;;;10.30;99.90;;;;;;5078246;28;20183;-77
2023/10/23 04:16:10;;;;;;;2.10;1.90;;;10.30;99.90;;;;;;5078856;28;20182;-77
2023/10/23 04:18:35;;;;;;;2.23;1.70;;;10.30;99.90;;;;;;5077615;28;20237;-79
2023/10/23 04:21:08;;;;;;;2.13;1.97;;;10.30;99.90;;;;;;5076732;28;20188;-76
2023/10/23 04:23:39;;;;;;;1.47;1.47;;;10.20;99.90;;;;;;5074378;28;20179;-75
2023/10/23 04:26:06;;;;;;;2.70;2.00;;;10.20;99.90;;;;;;5075427;28;20231;-78
2023/10/23 04:28:32;;;;;;;1.80;1.70;;;10.10;99.90;;;;;;5075830;28;20210;-77
2023/10/23 04:30:58;;;;;;;1.47;1.43;;;10.10;99.90;;;;;;5076326;28;20178;-78
2023/10/23 04:33:25;;;;;;;2.33;1.80;;;10.00;99.90;;;;;;5077690;28;20180;-79
2023/10/23 04:35:52;;;;;;;2.00;1.90;;;10.10;99.90;;;;;;5075957;28;20504;-77
2023/10/23 04:38:19;;;;;;;2.00;1.90;;;10.10;99.90;;;;;;5075430;28;20194;-78
2023/10/23 04:40:45;;;;;;;2.20;2.10;;;10.20;99.90;;;;;;5084733;28;20203;-77
2023/10/23 04:43:11;;;;;;;1.70;1.60;;;10.20;99.90;;;;;;5093300;28;20171;-78
2023/10/23 04:45:38;;;;;;;1.93;1.83;;;10.20;99.90;;;;;;5073631;28;20288;-78
2023/10/23 04:48:06;;;;;;;1.97;1.87;;;10.10;99.90;;;;;;5074392;28;20175;-77
2023/10/23 04:50:37;;;;;;;4.50;2.10;;;10.20;99.90;;;;;;5074617;28;20250;-77
2023/10/23 04:53:04;;;;;;;2.03;1.93;;;10.30;99.90;;;;;;5074546;28;20154;-79
2023/10/23 04:55:40;;;;;;;2.00;1.90;;;10.20;99.90;;;;;;5056491;28;20659;-77
2023/10/23 04:58:07;;;;;;;1.87;1.67;;;10.30;99.90;;;;;;5074321;28;20257;-77
2023/10/23 05:00:38;;;;;;;1.73;1.70;;;10.20;99.90;;;;;;5074381;28;20249;-77
2023/10/23 05:03:04;;;;;;;1.97;1.90;;;10.10;99.90;;;;;;5074957;28;20167;-79
2023/10/23 05:05:30;;;;;;;3.43;2.63;;;10.20;99.90;;;;;;5082123;28;20215;-79
2023/10/23 05:07:56;;;;;;;3.63;2.20;;;10.10;99.90;;;;;;5098414;28;20151;-78
2023/10/23 05:10:22;;;;;;;2.17;1.90;;;10.20;99.90;;;;;;5097488;28;20195;-79
2023/10/23 05:12:49;;;;;;;2.30;2.10;;;10.10;99.90;;;;;;5089139;28;20179;-78
2023/10/23 05:15:17;;;;;;;2.27;2.10;;;10.10;99.90;;;;;;5077944;28;20258;-79
2023/10/23 05:17:43;;;;;;;2.10;2.00;;;10.10;99.90;;;;;;5074372;28;20180;-76
2023/10/23 05:20:09;;;;;;;2.60;1.90;;;10.10;99.90;;;;;;5073761;28;20253;-78
2023/10/23 05:22:35;;;;;;;2.10;2.00;;;10.10;99.90;;;;;;5077604;28;20191;-76
2023/10/23 05:25:01;;;;;;;2.00;1.90;;;10.10;99.90;;;;;;5091140;28;20250;-77
2023/10/23 05:27:26;;;;;;;1.73;1.63;;;10.10;99.90;;;;;;5089653;28;20230;-77
2023/10/23 05:29:52;;;;;;;2.13;2.03;;;10.20;99.90;;;;;;5077354;28;20171;-77
2023/10/23 05:32:18;;;;;;;2.23;2.13;;;10.20;99.90;;;;;;5076566;28;20182;-79
2023/10/23 05:34:44;;;;;;;2.03;1.80;;;10.30;99.90;;;;;;5072410;28;20175;-78
2023/10/23 05:37:11;;;;;;;3.33;1.93;;;10.30;99.90;;;;;;5074201;28;20536;-77
2023/10/23 05:39:36;;;;;;;2.77;2.50;;;10.40;99.90;;;;;;5075868;28;20177;-79
2023/10/23 05:42:03;;;;;;;2.43;2.23;;;10.50;99.90;;;;;;5075040;28;20235;-76
2023/10/23 05:44:28;;;;;;;2.83;2.63;;;10.50;99.90;;;;;;5077133;28;20171;-76
2023/10/23 05:46:54;;;;;;;2.63;2.10;;;10.50;99.90;;;;;;5078400;28;20201;-76
2023/10/23 05:49:20;;;;;;;3.53;2.50;;;10.50;99.90;;;;;;5078985;28;20169;-78
2023/10/23 05:51:46;;;;;;;2.70;2.50;;;10.40;99.90;;;;;;5079320;28;20184;-77
2023/10/23 05:54:11;;;;;;;2.63;2.43;;;10.40;99.90;;;;;;5081791;28;20564;-76
2023/10/23 05:56:37;;;;;;;2.83;2.53;;;10.40;99.90;;;;;;5080003;28;20184;-77
2023/10/23 05:59:03;;;;;;;2.30;2.17;;;10.40;99.90;;;;;;5078556;28;20200;-79
2023/10/23 06:01:29;;;;;;;2.70;2.50;;;10.40;99.90;;;;;;5073969;28;20179;-76
2023/10/23 06:03:55;;;;;;;2.67;2.40;;;10.40;99.90;;;;;;5075475;28;20235;-79
2023/10/23 06:06:21;;;;;;;3.17;2.80;;;10.50;99.90;;;;;;5077281;28;20204;-77
2023/10/23 06:08:47;;;;;;;2.20;2.10;;;10.50;99.90;;;;;;5073703;28;20169;-78
2023/10/23 06:11:16;;;;;;;4.63;2.73;;;10.50;99.90;;;;;;5073842;28;20178;-78
2023/10/23 06:13:44;;;;;;;2.70;2.50;;;10.60;99.90;;;;;;5083761;28;20177;-78
2023/10/23 06:16:10;;;;;;;3.83;2.80;;;10.60;99.90;;;;;;5078341;28;20206;-79
2023/10/23 06:18:37;;;;;;;3.37;2.80;;;10.60;99.90;;;;;;5074427;28;20173;-80
2023/10/23 06:21:05;;;;;;;3.60;2.50;;;10.70;99.90;;;;;;5075091;28;20186;-79
2023/10/23 06:23:40;;;;;;;2.80;2.40;;;10.70;99.90;;;;;;5073907;28;20291;-77
2023/10/23 06:26:07;;;;;;;2.97;2.77;;;10.80;99.90;;;;;;5073492;28;20233;-78
2023/10/23 06:28:34;;;;;;;2.83;2.63;;;10.70;99.90;;;;;;5073742;28;20301;-76
2023/10/23 06:31:07;;;;;;;2.93;2.73;;;10.70;99.90;;;;;;5074205;28;20192;-77
2023/10/23 06:33:34;;;;;;;3.87;2.77;;;10.70;99.90;;;;;;5072367;28;20206;-77
2023/10/23 06:36:01;;;;;;;3.70;2.70;;;10.80;99.90;;;;;;5072205;28;20200;-79
2023/10/23 06:38:26;;;;;;;3.07;2.80;;;10.80;99.90;;;;;;5073718;28;20169;-78
2023/10/23 06:40:52;;;;;;;2.73;2.53;;;10.90;99.90;;;;;;5077574;28;20262;-78
2023/10/23 06:43:20;;;;;;;2.63;2.43;;;11.00;99.90;;;;;;5094231;28;20223;-79
2023/10/23 06:45:46;;;;;;;2.63;2.40;;;11.00;99.90;;;;;;5087720;28;20222;-77
2023/10/23 06:48:15;;;;;;;3.10;2.33;;;11.10;99.90;;;;;;5077902;28;20168;-76
2023/10/23 06:50:50;;;;;;;2.60;2.40;;;11.20;99.90;;;;;;5072243;28;20183;-76
2023/10/23 06:53:16;;;;;;;7.83;2.73;;;11.30;99.90;;;;;;5071733;28;20268;-76
2023/10/23 06:55:48;;;;;;;3.10;2.60;;;11.40;99.90;;;;;;5073690;28;20689;-76
2023/10/23 06:58:14;;;;;;;3.33;2.27;;;11.50;99.90;;;;;;5073849;28;20221;-76
2023/10/23 07:00:41;;;;;;;4.77;2.93;;;11.50;99.90;;;;;;5073728;28;20547;-75
2023/10/23 07:03:07;;;;;;;2.80;2.70;;;11.50;99.90;;;;;;5075221;28;20233;-77
2023/10/23 07:05:33;;;;;;;3.47;2.50;;;11.60;99.90;;;;;;5076105;28;20207;-76
2023/10/23 07:07:59;;;;;;;5.10;2.80;;;11.60;99.90;;;;;;5078040;28;20653;-77
2023/10/23 07:10:25;;;;;;;3.27;2.50;;;11.70;99.90;;;;;;5078702;28;20209;-77
2023/10/23 07:12:55;;;;;;;2.73;2.53;;;11.70;99.90;;;;;;5090073;28;20188;-80
2023/10/23 07:15:20;;;;;;;2.87;2.67;;;11.80;99.90;;;;;;5092498;28;20631;-77
2023/10/23 07:17:46;;;;;;;2.70;2.50;;;11.90;99.90;;;;;;5082357;28;20205;-79
2023/10/23 07:20:16;;;;;;;3.80;2.80;;;11.90;99.90;;;;;;5076249;28;20608;-76
2023/10/23 07:22:45;;;;;;;2.70;2.40;;;12.00;99.90;;;;;;5076529;28;20161;-75
2023/10/23 07:25:11;;;;;;;2.50;2.40;;;12.10;99.90;;;;;;5077205;28;20637;-77
2023/10/23 07:27:45;;;;;;;2.53;2.30;;;12.10;99.90;;;;;;5077377;28;20210;-77
2023/10/23 07:30:13;;;;;;;2.70;2.50;;;12.10;99.90;;;;;;5077365;28;20167;-76
2023/10/23 07:32:39;;;;;;;2.67;2.57;;;12.00;99.90;;;;;;5076163;28;20238;-77
2023/10/23 07:35:08;;;;;;;2.90;2.70;;;12.10;99.90;;;;;;5077563;28;20536;-77
2023/10/23 07:37:33;;;;;;;2.53;2.40;;;12.20;99.90;;;;;;5077256;28;20632;-77
2023/10/23 07:40:04;;;;;;;3.03;2.47;;;12.20;99.90;;;;;;5076790;28;20178;-76
2023/10/23 07:42:30;;;;;;;3.03;2.70;;;12.30;99.90;;;;;;5076954;28;20173;-76
2023/10/23 07:44:56;;;;;;;3.73;2.60;;;12.40;99.90;;;;;;5077856;28;20642;-76
2023/10/23 07:47:22;;;;;;;5.20;2.60;;;12.50;99.90;;;;;;5081163;28;20214;-78
2023/10/23 07:49:47;;;;;;;3.10;2.77;;;12.60;99.90;;;;;;5077540;28;20280;-76
2023/10/23 07:52:13;;;;;;;4.77;2.40;;;12.60;99.90;;;;;;5077949;28;20188;-78
2023/10/23 07:54:39;;;;;;;4.77;3.27;;;12.50;99.90;;;;;;5077630;28;20565;-75
2023/10/23 07:57:05;;;;;;;2.87;2.73;;;12.60;99.90;;;;;;5076549;28;20616;-76
2023/10/23 07:59:32;;;;;;;4.00;2.60;;;12.60;99.90;;;;;;5077135;28;20182;-79
2023/10/23 08:01:58;;;;;;;3.03;2.77;;;12.60;99.90;;;;;;5077358;28;20171;-77
2023/10/23 08:04:23;;;;;;;4.73;2.77;;;12.60;99.90;;;;;;5076460;28;20189;-76
2023/10/23 08:06:49;;;;;;;3.07;2.33;;;12.70;99.90;;;;;;5076778;28;20202;-80
2023/10/23 08:09:15;;;;;;;3.87;2.40;;;12.80;99.90;;;;;;5076831;28;20167;-77
2023/10/23 08:11:41;;;;;;;3.43;2.50;;;12.80;99.90;;;;;;5075737;28;20171;-76
2023/10/23 08:14:06;;;;;;;2.90;2.20;;;13.00;99.90;;;;;;5073370;28;20171;-78
2023/10/23 08:16:32;;;;;;;3.23;2.30;;;13.10;99.90;;;;;;5076842;28;20186;-77
2023/10/23 08:18:58;;;;;;;3.30;2.70;;;12.60;99.90;;;;;;5088804;28;20167;-79
2023/10/23 08:21:28;;;;;;;2.27;2.17;;;12.80;99.90;;;;;;5095784;28;20182;-76
2023/10/23 08:23:54;;;;;;;2.30;2.20;;;13.20;99.90;;;;;;5079610;28;20563;-78
2023/10/23 08:26:21;;;;;;;3.20;2.47;;;13.30;99.90;;;;;;5078288;28;20231;-78
2023/10/23 08:28:47;;;;;;;2.83;2.00;;;13.40;99.90;;;;;;5079219;28;20179;-77
2023/10/23 08:31:12;;;;;;;4.03;2.40;;;13.40;99.90;;;;;;5077611;28;20634;-77
2023/10/23 08:33:38;;;;;;;3.13;2.83;;;13.40;99.90;;;;;;5077122;28;20176;-77
2023/10/23 08:36:04;;;;;;;2.93;2.20;;;13.60;99.90;;;;;;5075055;28;20520;-78
2023/10/23 08:38:30;;;;;;;9.23;2.70;;;13.70;99.90;;;;;;5075302;28;20175;-76
2023/10/23 08:40:57;;;;;;;4.30;2.77;;;13.80;99.90;;;;;;5075311;28;20175;-76
2023/10/23 08:43:23;;;;;;;7.90;3.97;;;14.00;99.90;;;;;;5074716;28;20261;-77
2023/10/23 08:45:53;;;;;;;3.20;2.87;;;14.00;99.90;;;;;;5075811;28;20207;-77
2023/10/23 08:48:19;;;;;;;3.93;3.40;;;14.00;99.90;;;;;;5075907;28;20603;-77
2023/10/23 08:50:46;;;;;;;3.30;3.10;;;14.10;99.90;;;;;;5075629;28;20266;-77
2023/10/23 08:53:15;;;;;;;3.63;3.23;;;14.10;99.90;;;;;;5074714;28;20182;-75
2023/10/23 08:55:42;;;;;;;4.80;3.27;;;14.10;99.90;;;;;;5077226;28;20232;-76
2023/10/23 08:58:13;;;;;;;5.00;3.60;;;14.10;99.90;;;;;;5074520;28;20185;-76
2023/10/23 09:00:38;;;;;;;7.23;3.90;;;14.10;99.90;;;;;;5075487;28;20404;-77
2023/10/23 09:03:05;;;;;;;9.77;3.60;;;14.10;99.90;;;;;;5076122;28;20559;-76
2023/10/23 09:05:31;;;;;;;4.77;3.57;;;14.10;99.90;;;;;;5074481;28;20214;-76
2023/10/23 09:07:57;;;;;;;4.10;3.77;;;14.10;99.90;;;;;;5076403;28;20171;-76
2023/10/23 09:10:22;;;;;;;5.33;4.63;;;14.20;99.90;;;;;;5075254;28;20672;-77
2023/10/23 09:12:55;;;;;;;5.30;4.50;;;14.20;99.90;;;;;;5074651;28;20171;-77
2023/10/23 09:15:23;;;;;;;5.07;3.83;;;14.30;99.90;;;;;;5075968;28;20172;-75
2023/10/23 09:17:49;;;;;;;16.20;4.00;;;14.40;99.90;;;;;;5075793;28;20225;-76
2023/10/23 09:20:24;;;;;;;5.57;3.43;;;14.50;99.90;;;;;;5077377;28;20172;-77
2023/10/23 09:22:53;;;;;;;3.80;3.47;;;14.60;99.90;;;;;;5085763;28;20186;-76
2023/10/23 09:25:20;;;;;;;4.63;3.60;;;14.70;99.90;;;;;;5077585;28;20228;-77
2023/10/23 09:27:46;;;;;;;4.23;3.57;;;14.70;99.90;;;;;;5073670;28;20553;-76
2023/10/23 09:30:21;;;;;;;3.83;3.53;;;14.70;99.90;;;;;;5074252;28;20171;-76
2023/10/23 09:32:51;;;;;;;4.63;3.30;;;14.70;99.90;;;;;;5075218;28;20167;-75
2023/10/23 09:35:18;;;;;;;4.77;2.97;;;14.80;99.90;;;;;;5078062;28;20628;-75
2023/10/23 09:37:44;;;;;;;2.97;2.77;;;14.90;99.90;;;;;;5074407;28;20177;-75
2023/10/23 09:40:13;;;;;;;3.87;3.43;;;14.90;99.90;;;;;;5075465;28;20205;-75
2023/10/23 09:42:40;;;;;;;4.40;2.73;;;15.00;99.90;;;;;;5078767;28;20184;-78
2023/10/23 09:45:08;;;;;;;2.60;2.40;;;15.00;99.90;;;;;;5088157;28;20187;-77
2023/10/23 09:47:35;;;;;;;3.53;2.80;;;14.90;99.90;;;;;;5076476;28;20214;-77
2023/10/23 09:50:03;;;;;;;2.17;2.07;;;14.90;99.90;;;;;;5081168;28;20245;-77
2023/10/23 09:52:33;;;;;;;3.63;2.70;;;15.00;99.90;;;;;;5086125;28;20188;-78
2023/10/23 09:55:03;;;;;;;5.47;2.30;;;15.00;99.90;;;;;;5093997;28;20171;-79
2023/10/23 09:57:39;;;;;;;4.93;2.23;;;14.90;99.90;;;;;;5093258;28;20172;-76
2023/10/23 10:00:13;;;;;;;2.20;2.10;;;15.00;99.90;;;;;;5076077;28;20151;-79
2023/10/23 10:02:43;;;;;;;2.87;2.67;;;15.00;99.90;;;;;;5072985;28;20182;-76
2023/10/23 10:05:12;;;;;;;2.60;2.40;;;15.00;99.90;;;;;;5073011;28;20203;-75
2023/10/23 10:08:23;;;;;;;2.73;2.30;;;15.10;99.90;;;;;;5075646;28;20293;-76
2023/10/23 10:10:51;;;;;;;2.47;2.37;;;15.10;99.90;;;;;;5036319;28;20204;-76
2023/10/23 10:13:19;;;;;;;2.57;2.20;;;15.20;99.90;;;;;;5043478;28;20219;-77
2023/10/23 10:15:45;;;;;;;2.00;1.90;;;15.20;99.90;;;;;;5042980;28;20173;-76
2023/10/23 10:18:16;;;;;;;1.93;1.80;;;15.20;99.90;;;;;;5033504;28;20201;-78
2023/10/23 10:20:48;;;;;;;1.80;1.70;;;15.20;99.90;;;;;;5015609;28;20548;-76
2023/10/23 10:23:16;;;;;;;4.20;2.60;;;15.30;99.90;;;;;;5033040;28;20174;-77
2023/10/23 10:25:44;;;;;;;2.10;1.90;;;15.30;99.90;;;;;;5034000;28;20228;-76
2023/10/23 10:28:12;;;;;;;1.70;1.70;;;15.30;99.90;;;;;;5033506;28;20284;-77
2023/10/23 10:30:48;;;;;;;2.60;2.00;;;15.40;99.90;;;;;;5032974;28;20206;-76
2023/10/23 10:33:30;;;;;;;3.73;1.70;;;15.40;99.90;;;;;;5032134;28;20185;-75
2023/10/23 10:36:05;;;;;;;1.70;1.60;;;15.50;99.90;;;;;;5033605;28;20172;-77
2023/10/23 10:38:35;;;;;;;2.20;2.10;;;15.60;99.90;;;;;;5031146;28;20624;-76
2023/10/23 10:41:05;;;;;;;2.73;1.97;;;15.60;99.90;;;;;;5031533;28;20186;-75
2023/10/23 10:43:39;;;;;;;2.60;2.00;;;15.60;99.90;;;;;;5031458;28;20545;-77
2023/10/23 10:46:15;;;;;;;3.70;2.10;;;15.60;99.90;;;;;;5027896;28;20215;-75
2023/10/23 10:48:45;;;;;;;1.83;1.73;;;15.70;99.90;;;;;;5061561;28;20258;-78
2023/10/23 10:51:22;;;;;;;2.37;2.10;;;15.60;99.90;;;;;;5074292;28;20160;-76
2023/10/23 10:54:02;;;;;;;2.07;1.97;;;15.50;99.90;;;;;;5066567;28;20567;-76
2023/10/23 10:56:28;;;;;;;1.60;1.50;;;15.50;99.90;;;;;;5057802;28;20297;-77
2023/10/23 10:58:53;;;;;;;2.20;1.67;;;15.60;99.90;;;;;;5057685;28;20217;-76
2023/10/23 11:01:23;;;;;;;2.70;1.60;;;15.70;99.90;;;;;;5054436;28;20183;-78
2023/10/23 11:03:49;;;;;;;1.87;1.67;;;15.80;99.90;;;;;;5053259;28;20275;-79
2023/10/23 11:06:14;;;;;;;2.47;1.73;;;15.80;99.90;;;;;;5061234;28;20235;-78
2023/10/23 11:08:40;;;;;;;1.47;1.47;;;16.00;99.90;;;;;;5062032;28;20222;-77
2023/10/23 11:11:06;;;;;;;3.13;1.70;;;16.00;99.90;;;;;;5063190;28;20200;-77
2023/10/23 11:13:35;;;;;;;1.37;1.37;;;16.10;99.90;;;;;;5054915;28;20175;-76
2023/10/23 11:16:04;;;;;;;2.67;2.30;;;16.20;99.90;;;;;;5053491;28;20168;-76
2023/10/23 11:18:33;;;;;;;2.53;2.00;;;16.30;99.90;;;;;;5053437;28;20174;-77
2023/10/23 11:21:03;;;;;;;1.67;1.67;;;16.30;99.90;;;;;;5053792;28;20524;-76
2023/10/23 11:23:30;;;;;;;1.63;1.47;;;16.30;99.90;;;;;;5054046;28;20187;-76
2023/10/23 11:25:56;;;;;;;2.23;1.70;;;16.30;99.90;;;;;;5065875;28;20215;-76
2023/10/23 11:28:22;;;;;;;2.53;1.80;;;16.40;99.90;;;;;;5072426;28;20203;-76
2023/10/23 11:30:54;;;;;;;1.90;1.80;;;16.40;99.90;;;;;;5082141;28;20159;-78
2023/10/23 11:33:20;;;;;;;1.90;1.80;;;16.40;99.90;;;;;;5094437;28;20168;-76
2023/10/23 11:35:46;;;;;;;2.87;2.10;;;16.50;99.90;;;;;;5093473;28;20175;-76
2023/10/23 11:38:24;;;;;;;1.73;1.63;;;16.60;99.90;;;;;;5074914;28;20267;-76
2023/10/23 11:40:53;;;;;;;2.07;1.97;;;16.70;99.90;;;;;;5075458;28;20187;-77
2023/10/23 11:43:19;;;;;;;1.90;1.70;;;16.80;99.90;;;;;;5074276;28;20172;-79
2023/10/23 11:45:46;;;;;;;1.80;1.60;;;16.90;99.90;;;;;;5074126;28;20259;-77
2023/10/23 11:48:12;;;;;;;7.00;1.63;;;16.90;99.90;;;;;;5076782;28;20175;-77
2023/10/23 11:50:40;;;;;;;4.03;1.90;;;16.90;99.90;;;;;;5077895;28;20177;-78
2023/10/23 11:53:06;;;;;;;2.53;1.77;;;17.00;99.90;;;;;;5096402;28;20630;-77
2023/10/23 11:55:33;;;;;;;1.93;1.83;;;17.00;99.90;;;;;;5086479;28;20179;-80
2023/10/23 11:58:00;;;;;;;2.93;1.83;;;16.90;99.90;;;;;;5075948;28;20229;-76
2023/10/23 12:00:27;;;;;;;2.00;1.80;;;17.00;99.90;;;;;;5075912;28;20273;-77
2023/10/23 12:02:53;;;;;;;2.80;1.70;;;17.00;99.90;;;;;;5076097;28;20647;-76
2023/10/23 12:05:21;;;;;;;1.70;1.60;;;17.00;99.90;;;;;;5076507;28;20197;-77
2023/10/23 12:07:52;;;;;;;1.93;1.63;;;17.00;99.90;;;;;;5076519;28;20236;-78
2023/10/23 12:10:20;;;;;;;1.83;1.67;;;17.00;99.90;;;;;;5076780;28;20151;-78
2023/10/23 12:12:46;;;;;;;1.67;1.57;;;17.00;99.90;;;;;;5075730;28;20221;-78
2023/10/23 12:15:16;;;;;;;1.67;1.57;;;17.00;99.90;;;;;;5075363;28;20204;-78
2023/10/23 12:17:42;;;;;;;3.10;1.60;;;17.10;99.90;;;;;;5074418;28;20627;-78
2023/10/23 12:20:11;;;;;;;3.50;2.63;;;17.00;99.90;;;;;;5073778;28;20324;-78
2023/10/23 12:22:45;;;;;;;1.63;1.57;;;17.10;99.90;;;;;;5075411;28;20185;-76
2023/10/23 12:25:16;;;;;;;2.57;1.90;;;17.10;99.90;;;;;;5076559;28;20223;-77
2023/10/23 12:27:42;;;;;;;4.10;1.70;;;17.10;99.90;;;;;;5079019;28;20202;-78
2023/10/23 12:30:10;;;;;;;1.70;1.60;;;17.10;99.90;;;;;;5075994;28;20177;-78
2023/10/23 12:32:36;;;;;;;3.03;1.70;;;17.00;99.90;;;;;;5083896;28;20250;-78
2023/10/23 12:35:05;;;;;;;1.77;1.67;;;17.10;99.90;;;;;;5076404;28;20183;-78
2023/10/23 12:37:31;;;;;;;2.57;1.50;;;17.10;99.90;;;;;;5084695;28;20167;-77
2023/10/23 12:40:00;;;;;;;3.87;1.50;;;17.10;99.90;;;;;;5097407;28;20175;-78
2023/10/23 12:42:27;;;;;;;1.43;1.40;;;17.10;99.90;;;;;;5090454;28;20175;-79
2023/10/23 12:44:54;;;;;;;3.50;1.27;;;17.20;99.90;;;;;;5078787;28;20185;-79
2023/10/23 12:47:21;;;;;;;2.07;1.40;;;17.10;99.90;;;;;;5077747;28;20290;-78
2023/10/23 12:49:46;;;;;;;3.33;1.40;;;17.10;99.90;;;;;;5076940;28;20174;-75